sensor_id;sensor_type;location;lat;lon;timestamp;temperature;humidity
55083;DHT22;40978;52.850;6.506;2023-07-08T00:00:42;17.50;99.90
55083;DHT22;40978;52.850;6.506;2023-07-08T00:03:08;17.50;99.90
55083;DHT22;40978;52.850;6.506;2023-07-08T00:05:34;17.40;99.90
55083;DHT22;40978;52.850;6.506;2023-07-08T00:08:01;17.40;99.90
55083;DHT22;40978;52.850;6.506;2023-07-08T00:10:28;17.30;99.90
55083;DHT22;40978;52.850;6.506;2023-07-08T00:12:56;17.30;99.90
55083;DHT22;40978;52.850;6.506;2023-07-08T00:15:25;17.30;99.90
55083;DHT22;40978;52.850;6.506;2023-07-08T00:17:51;17.30;99.90
55083;DHT22;40978;52.850;6.506;2023-07-08T00:20:35;17.20;99.90
55083;DHT22;40978;52.850;6.506;2023-07-08T00:23:02;17.20;99.90
55083;DHT22;40978;52.850;6.506;2023-07-08T00:25:29;17.10;99.90
55083;DHT22;40978;52.850;6.506;2023-07-08T00:28:24;17.10;99.90
55083;DHT22;40978;52.850;6.506;2023-07-08T00:30:49;17.10;99.90
55083;DHT22;40978;52.850;6.506;2023-07-08T00:33:15;17.00;99.90
55083;DHT22;40978;52.850;6.506;2023-07-08T00:35:43;17.00;99.90
55083;DHT22;40978;52.850;6.506;2023-07-08T00:38:28;16.90;99.90
55083;DHT22;40978;52.850;6.506;2023-07-08T00:46:25;16.80;99.90
55083;DHT22;40978;52.850;6.506;2023-07-08T00:51:36;16.80;99.90
55083;DHT22;40978;52.850;6.506;2023-07-08T00:54:10;16.70;99.90
55083;DHT22;40978;52.850;6.506;2023-07-08T00:56:49;16.70;99.90
55083;DHT22;40978;52.850;6.506;2023-07-08T01:01:48;16.60;99.90
55083;DHT22;40978;52.850;6.506;2023-07-08T01:04:34;16.60;99.90
55083;DHT22;40978;52.850;6.506;2023-07-08T01:07:01;16.60;99.90
55083;DHT22;40978;52.850;6.506;2023-07-08T01:09:36;16.60;99.90
55083;DHT22;40978;52.850;6.506;2023-07-08T01:12:07;16.60;99.90
55083;DHT22;40978;52.850;6.506;2023-07-08T01:14:36;16.50;99.90
55083;DHT22;40978;52.850;6.506;2023-07-08T01:17:03;16.50;99.90
55083;DHT22;40978;52.850;6.506;2023-07-08T01:19:29;16.50;99.90
55083;DHT22;40978;52.850;6.506;2023-07-08T01:22:02;16.50;99.90
55083;DHT22;40978;52.850;6.506;2023-07-08T01:24:31;16.50;99.90
55083;DHT22;40978;52.850;6.506;2023-07-08T01:26:57;16.50;99.90
55083;DHT22;40978;52.850;6.506;2023-07-08T01:29:23;16.50;99.90
55083;DHT22;40978;52.850;6.506;2023-07-08T01:31:49;16.50;99.90
55083;DHT22;40978;52.850;6.506;2023-07-08T01:34:16;16.40;99.90
55083;DHT22;40978;52.850;6.506;2023-07-08T01:36:49;16.40;99.90
55083;DHT22;40978;52.850;6.506;2023-07-08T01:39:18;16.40;99.90
55083;DHT22;40978;52.850;6.506;2023-07-08T01:41:45;16.40;99.90
55083;DHT22;40978;52.850;6.506;2023-07-08T01:44:35;16.40;99.90
55083;DHT22;40978;52.850;6.506;2023-07-08T01:47:09;16.40;99.90
55083;DHT22;40978;52.850;6.506;2023-07-08T01:49:37;16.30;99.90
55083;DHT22;40978;52.850;6.506;2023-07-08T01:52:05;16.30;99.90
55083;DHT22;40978;52.850;6.506;2023-07-08T01:54:31;16.30;99.90
55083;DHT22;40978;52.850;6.506;2023-07-08T01:56:58;16.30;99.90
55083;DHT22;40978;52.850;6.506;2023-07-08T01:59:24;16.30;99.90
55083;DHT22;40978;52.850;6.506;2023-07-08T02:01:51;16.20;99.90
55083;DHT22;40978;52.850;6.506;2023-07-08T02:04:21;16.20;99.90
55083;DHT22;40978;52.850;6.506;2023-07-08T02:06:54;16.20;99.90
55083;DHT22;40978;52.850;6.506;2023-07-08T02:09:19;16.20;99.90
55083;DHT22;40978;52.850;6.506;2023-07-08T02:11:45;16.20;99.90
55083;DHT22;40978;52.850;6.506;2023-07-08T02:14:11;16.10;99.90
55083;DHT22;40978;52.850;6.506;2023-07-08T02:16:36;16.10;99.90
55083;DHT22;40978;52.850;6.506;2023-07-08T02:19:02;16.10;99.90
55083;DHT22;40978;52.850;6.506;2023-07-08T02:21:28;16.00;99.90
55083;DHT22;40978;52.850;6.506;2023-07-08T02:23:57;16.00;99.90
55083;DHT22;40978;52.850;6.506;2023-07-08T02:26:23;16.00;99.90
55083;DHT22;40978;52.850;6.506;2023-07-08T02:28:49;16.00;99.90
55083;DHT22;40978;52.850;6.506;2023-07-08T02:31:15;16.00;99.90
55083;DHT22;40978;52.850;6.506;2023-07-08T02:33:40;15.90;99.90
55083;DHT22;40978;52.850;6.506;2023-07-08T02:36:06;15.90;99.90
55083;DHT22;40978;52.850;6.506;2023-07-08T02:38:32;15.90;99.90
55083;DHT22;40978;52.850;6.506;2023-07-08T02:40:58;15.90;99.90
55083;DHT22;40978;52.850;6.506;2023-07-08T02:43:23;15.80;99.90
55083;DHT22;40978;52.850;6.506;2023-07-08T02:45:52;15.80;99.90
55083;DHT22;40978;52.850;6.506;2023-07-08T02:48:19;15.90;99.90
55083;DHT22;40978;52.850;6.506;2023-07-08T02:50:45;15.90;99.90
55083;DHT22;40978;52.850;6.506;2023-07-08T02:53:11;15.80;99.90
55083;DHT22;40978;52.850;6.506;2023-07-08T02:55:38;15.80;99.90
55083;DHT22;40978;52.850;6.506;2023-07-08T02:58:04;15.80;99.90
55083;DHT22;40978;52.850;6.506;2023-07-08T03:00:30;15.80;99.90
55083;DHT22;40978;52.850;6.506;2023-07-08T03:02:56;15.80;99.90
55083;DHT22;40978;52.850;6.506;2023-07-08T03:05:21;15.80;99.90
55083;DHT22;40978;52.850;6.506;2023-07-08T03:07:47;15.80;99.90
55083;DHT22;40978;52.850;6.506;2023-07-08T03:10:13;15.80;99.90
55083;DHT22;40978;52.850;6.506;2023-07-08T03:12:38;15.80;99.90
55083;DHT22;40978;52.850;6.506;2023-07-08T03:15:05;15.70;99.90
55083;DHT22;40978;52.850;6.506;2023-07-08T03:17:31;15.80;99.90
55083;DHT22;40978;52.850;6.506;2023-07-08T03:19:56;15.80;99.90
55083;DHT22;40978;52.850;6.506;2023-07-08T03:22:22;15.70;99.90
55083;DHT22;40978;52.850;6.506;2023-07-08T03:24:48;15.70;99.90
55083;DHT22;40978;52.850;6.506;2023-07-08T03:27:14;15.70;99.90
55083;DHT22;40978;52.850;6.506;2023-07-08T03:29:40;15.60;99.90
55083;DHT22;40978;52.850;6.506;2023-07-08T03:32:11;15.60;99.90
55083;DHT22;40978;52.850;6.506;2023-07-08T03:34:37;15.60;99.90
55083;DHT22;40978;52.850;6.506;2023-07-08T03:37:04;15.60;99.90
55083;DHT22;40978;52.850;6.506;2023-07-08T03:39:30;15.60;99.90
55083;DHT22;40978;52.850;6.506;2023-07-08T03:41:57;15.60;99.90
55083;DHT22;40978;52.850;6.506;2023-07-08T03:44:23;15.50;99.90
55083;DHT22;40978;52.850;6.506;2023-07-08T03:46:49;15.50;99.90
55083;DHT22;40978;52.850;6.506;2023-07-08T03:49:17;15.50;99.90
55083;DHT22;40978;52.850;6.506;2023-07-08T03:51:47;15.50;99.90
55083;DHT22;40978;52.850;6.506;2023-07-08T03:54:14;15.50;99.90
55083;DHT22;40978;52.850;6.506;2023-07-08T03:56:40;15.50;99.90
55083;DHT22;40978;52.850;6.506;2023-07-08T03:59:09;15.50;99.90
55083;DHT22;40978;52.850;6.506;2023-07-08T04:01:35;15.50;99.90
55083;DHT22;40978;52.850;6.506;2023-07-08T04:04:00;15.50;99.90
55083;DHT22;40978;52.850;6.506;2023-07-08T04:06:27;15.50;99.90
55083;DHT22;40978;52.850;6.506;2023-07-08T04:08:57;15.50;99.90
55083;DHT22;40978;52.850;6.506;2023-07-08T04:11:23;15.50;99.90
55083;DHT22;40978;52.850;6.506;2023-07-08T04:13:50;15.50;99.90
55083;DHT22;40978;52.850;6.506;2023-07-08T04:16:23;15.50;99.90
55083;DHT22;40978;52.850;6.506;2023-07-08T04:18:50;15.50;99.90
55083;DHT22;40978;52.850;6.506;2023-07-08T04:21:19;15.50;99.90
55083;DHT22;40978;52.850;6.506;2023-07-08T04:23:45;15.60;99.90
55083;DHT22;40978;52.850;6.506;2023-07-08T04:26:11;15.60;99.90
55083;DHT22;40978;52.850;6.506;2023-07-08T04:28:37;15.70;99.90
55083;DHT22;40978;52.850;6.506;2023-07-08T04:31:03;15.70;99.90
55083;DHT22;40978;52.850;6.506;2023-07-08T04:33:29;15.80;99.90
55083;DHT22;40978;52.850;6.506;2023-07-08T04:35:55;15.80;99.90
55083;DHT22;40978;52.850;6.506;2023-07-08T04:38:23;15.90;99.90
55083;DHT22;40978;52.850;6.506;2023-07-08T04:40:50;16.00;99.90
55083;DHT22;40978;52.850;6.506;2023-07-08T04:43:17;16.10;99.90
55083;DHT22;40978;52.850;6.506;2023-07-08T04:45:45;16.20;99.90
55083;DHT22;40978;52.850;6.506;2023-07-08T04:48:13;16.20;99.90
55083;DHT22;40978;52.850;6.506;2023-07-08T04:50:44;16.30;99.90
55083;DHT22;40978;52.850;6.506;2023-07-08T04:53:11;16.40;99.90
55083;DHT22;40978;52.850;6.506;2023-07-08T04:55:46;16.50;99.90
55083;DHT22;40978;52.850;6.506;2023-07-08T04:58:14;16.60;99.90
55083;DHT22;40978;52.850;6.506;2023-07-08T05:00:39;16.80;99.90
55083;DHT22;40978;52.850;6.506;2023-07-08T05:03:05;17.00;99.90
55083;DHT22;40978;52.850;6.506;2023-07-08T05:05:31;17.50;99.90
55083;DHT22;40978;52.850;6.506;2023-07-08T05:07:57;18.00;99.90
55083;DHT22;40978;52.850;6.506;2023-07-08T05:10:22;18.40;99.90
55083;DHT22;40978;52.850;6.506;2023-07-08T05:12:48;18.60;99.90
55083;DHT22;40978;52.850;6.506;2023-07-08T05:15:15;18.50;99.90
55083;DHT22;40978;52.850;6.506;2023-07-08T05:17:41;18.50;99.90
55083;DHT22;40978;52.850;6.506;2023-07-08T05:20:10;18.70;99.90
55083;DHT22;40978;52.850;6.506;2023-07-08T05:22:36;18.90;99.90
55083;DHT22;40978;52.850;6.506;2023-07-08T05:25:02;18.80;99.90
55083;DHT22;40978;52.850;6.506;2023-07-08T05:27:29;18.60;99.90
55083;DHT22;40978;52.850;6.506;2023-07-08T05:29:55;18.40;99.90
55083;DHT22;40978;52.850;6.506;2023-07-08T05:32:20;18.30;99.90
55083;DHT22;40978;52.850;6.506;2023-07-08T05:34:46;18.20;99.90
55083;DHT22;40978;52.850;6.506;2023-07-08T05:37:13;18.20;99.90
55083;DHT22;40978;52.850;6.506;2023-07-08T05:39:39;18.10;99.90
55083;DHT22;40978;52.850;6.506;2023-07-08T05:42:05;18.10;99.90
55083;DHT22;40978;52.850;6.506;2023-07-08T05:44:31;18.10;99.90
55083;DHT22;40978;52.850;6.506;2023-07-08T05:46:56;18.20;99.90
55083;DHT22;40978;52.850;6.506;2023-07-08T05:49:22;18.20;99.90
55083;DHT22;40978;52.850;6.506;2023-07-08T05:51:48;18.30;99.90
55083;DHT22;40978;52.850;6.506;2023-07-08T05:54:14;18.30;99.90
55083;DHT22;40978;52.850;6.506;2023-07-08T05:56:40;18.40;99.90
55083;DHT22;40978;52.850;6.506;2023-07-08T05:59:06;18.50;99.90
55083;DHT22;40978;52.850;6.506;2023-07-08T06:01:32;18.60;99.90
55083;DHT22;40978;52.850;6.506;2023-07-08T06:03:58;18.70;99.90
55083;DHT22;40978;52.850;6.506;2023-07-08T06:06:25;18.70;99.90
55083;DHT22;40978;52.850;6.506;2023-07-08T06:08:52;18.80;99.90
55083;DHT22;40978;52.850;6.506;2023-07-08T06:11:18;18.90;99.90
55083;DHT22;40978;52.850;6.506;2023-07-08T06:13:44;19.00;99.90
55083;DHT22;40978;52.850;6.506;2023-07-08T06:16:10;19.00;99.90
55083;DHT22;40978;52.850;6.506;2023-07-08T06:18:35;19.10;99.90
55083;DHT22;40978;52.850;6.506;2023-07-08T06:21:01;19.30;99.90
55083;DHT22;40978;52.850;6.506;2023-07-08T06:23:27;19.40;99.90
55083;DHT22;40978;52.850;6.506;2023-07-08T06:25:53;19.50;99.90
55083;DHT22;40978;52.850;6.506;2023-07-08T06:28:19;19.50;99.90
55083;DHT22;40978;52.850;6.506;2023-07-08T06:30:45;19.70;99.90
55083;DHT22;40978;52.850;6.506;2023-07-08T06:33:12;19.80;99.90
55083;DHT22;40978;52.850;6.506;2023-07-08T06:35:38;19.90;99.90
55083;DHT22;40978;52.850;6.506;2023-07-08T06:38:05;20.00;99.90
55083;DHT22;40978;52.850;6.506;2023-07-08T06:40:32;20.10;99.90
55083;DHT22;40978;52.850;6.506;2023-07-08T06:42:58;20.20;99.90
55083;DHT22;40978;52.850;6.506;2023-07-08T06:45:24;20.40;99.90
55083;DHT22;40978;52.850;6.506;2023-07-08T06:47:49;20.50;99.90
55083;DHT22;40978;52.850;6.506;2023-07-08T06:50:15;20.60;99.90
55083;DHT22;40978;52.850;6.506;2023-07-08T06:52:41;20.80;99.90
55083;DHT22;40978;52.850;6.506;2023-07-08T06:55:09;20.90;99.90
55083;DHT22;40978;52.850;6.506;2023-07-08T06:57:35;21.00;99.90
55083;DHT22;40978;52.850;6.506;2023-07-08T07:00:01;21.10;99.90
55083;DHT22;40978;52.850;6.506;2023-07-08T07:02:27;21.20;99.90
55083;DHT22;40978;52.850;6.506;2023-07-08T07:04:53;21.40;99.90
55083;DHT22;40978;52.850;6.506;2023-07-08T07:07:20;21.50;99.90
55083;DHT22;40978;52.850;6.506;2023-07-08T07:09:46;21.60;99.90
55083;DHT22;40978;52.850;6.506;2023-07-08T07:12:12;21.70;99.90
55083;DHT22;40978;52.850;6.506;2023-07-08T07:14:37;21.80;99.90
55083;DHT22;40978;52.850;6.506;2023-07-08T07:17:03;21.90;99.90
55083;DHT22;40978;52.850;6.506;2023-07-08T07:19:29;22.10;99.90
55083;DHT22;40978;52.850;6.506;2023-07-08T07:21:55;22.20;99.90
55083;DHT22;40978;52.850;6.506;2023-07-08T07:24:20;22.30;99.90
55083;DHT22;40978;52.850;6.506;2023-07-08T07:26:46;22.40;99.90
55083;DHT22;40978;52.850;6.506;2023-07-08T07:29:16;22.40;99.90
55083;DHT22;40978;52.850;6.506;2023-07-08T07:31:41;22.50;99.90
55083;DHT22;40978;52.850;6.506;2023-07-08T07:34:07;22.70;99.90
55083;DHT22;40978;52.850;6.506;2023-07-08T07:36:34;22.80;99.90
55083;DHT22;40978;52.850;6.506;2023-07-08T07:39:00;22.90;99.90
55083;DHT22;40978;52.850;6.506;2023-07-08T07:41:25;23.00;99.90
55083;DHT22;40978;52.850;6.506;2023-07-08T07:43:51;23.00;99.90
55083;DHT22;40978;52.850;6.506;2023-07-08T07:46:18;23.00;99.90
55083;DHT22;40978;52.850;6.506;2023-07-08T07:48:44;23.10;99.90
55083;DHT22;40978;52.850;6.506;2023-07-08T07:51:10;23.20;99.90
55083;DHT22;40978;52.850;6.506;2023-07-08T07:53:39;23.30;99.90
55083;DHT22;40978;52.850;6.506;2023-07-08T07:56:05;23.40;99.90
55083;DHT22;40978;52.850;6.506;2023-07-08T07:58:32;23.50;99.90
55083;DHT22;40978;52.850;6.506;2023-07-08T08:00:58;23.70;99.90
55083;DHT22;40978;52.850;6.506;2023-07-08T08:03:27;23.80;99.70
55083;DHT22;40978;52.850;6.506;2023-07-08T08:05:52;23.90;99.90
55083;DHT22;40978;52.850;6.506;2023-07-08T08:08:19;24.00;98.90
55083;DHT22;40978;52.850;6.506;2023-07-08T08:10:46;24.20;99.90
55083;DHT22;40978;52.850;6.506;2023-07-08T08:13:11;24.30;98.80
55083;DHT22;40978;52.850;6.506;2023-07-08T08:15:38;24.40;98.50
55083;DHT22;40978;52.850;6.506;2023-07-08T08:18:04;24.60;99.20
55083;DHT22;40978;52.850;6.506;2023-07-08T08:20:29;24.70;97.80
55083;DHT22;40978;52.850;6.506;2023-07-08T08:22:56;24.80;98.90
55083;DHT22;40978;52.850;6.506;2023-07-08T08:25:23;24.90;98.30
55083;DHT22;40978;52.850;6.506;2023-07-08T08:27:49;25.10;97.30
55083;DHT22;40978;52.850;6.506;2023-07-08T08:30:16;25.10;96.10
55083;DHT22;40978;52.850;6.506;2023-07-08T08:32:42;25.20;96.80
55083;DHT22;40978;52.850;6.506;2023-07-08T08:35:07;25.30;95.70
55083;DHT22;40978;52.850;6.506;2023-07-08T08:37:33;25.50;94.90
55083;DHT22;40978;52.850;6.506;2023-07-08T08:39:59;25.60;95.20
55083;DHT22;40978;52.850;6.506;2023-07-08T08:42:38;25.70;95.10
55083;DHT22;40978;52.850;6.506;2023-07-08T08:45:05;25.80;92.70
55083;DHT22;40978;52.850;6.506;2023-07-08T08:52:51;25.90;92.80
55083;DHT22;40978;52.850;6.506;2023-07-08T08:55:17;26.10;92.70
55083;DHT22;40978;52.850;6.506;2023-07-08T09:00:25;26.30;91.60
55083;DHT22;40978;52.850;6.506;2023-07-08T09:02:59;26.60;90.40
55083;DHT22;40978;52.850;6.506;2023-07-08T09:05:28;26.80;90.00
55083;DHT22;40978;52.850;6.506;2023-07-08T09:13:33;27.30;86.80
55083;DHT22;40978;52.850;6.506;2023-07-08T09:16:40;27.60;84.80
55083;DHT22;40978;52.850;6.506;2023-07-08T09:19:24;27.90;84.20
55083;DHT22;40978;52.850;6.506;2023-07-08T09:22:04;27.80;81.90
55083;DHT22;40978;52.850;6.506;2023-07-08T09:27:00;27.80;77.60
55083;DHT22;40978;52.850;6.506;2023-07-08T09:29:28;27.80;78.60
55083;DHT22;40978;52.850;6.506;2023-07-08T09:31:54;27.90;80.70
55083;DHT22;40978;52.850;6.506;2023-07-08T09:34:23;28.00;79.10
55083;DHT22;40978;52.850;6.506;2023-07-08T09:36:50;28.10;80.60
55083;DHT22;40978;52.850;6.506;2023-07-08T09:39:20;28.20;75.60
55083;DHT22;40978;52.850;6.506;2023-07-08T09:41:49;28.30;78.30
55083;DHT22;40978;52.850;6.506;2023-07-08T09:44:24;28.40;79.30
55083;DHT22;40978;52.850;6.506;2023-07-08T09:46:55;28.50;78.30
55083;DHT22;40978;52.850;6.506;2023-07-08T09:51:54;28.80;75.80
55083;DHT22;40978;52.850;6.506;2023-07-08T09:54:23;28.90;74.10
55083;DHT22;40978;52.850;6.506;2023-07-08T09:56:59;29.20;76.90
55083;DHT22;40978;52.850;6.506;2023-07-08T09:59:39;29.50;74.60
55083;DHT22;40978;52.850;6.506;2023-07-08T10:05:00;29.70;70.40
55083;DHT22;40978;52.850;6.506;2023-07-08T10:07:31;29.80;67.90
55083;DHT22;40978;52.850;6.506;2023-07-08T10:10:02;29.80;66.60
55083;DHT22;40978;52.850;6.506;2023-07-08T10:12:30;29.90;68.40
55083;DHT22;40978;52.850;6.506;2023-07-08T10:15:00;29.90;68.00
55083;DHT22;40978;52.850;6.506;2023-07-08T10:17:28;30.00;69.50
55083;DHT22;40978;52.850;6.506;2023-07-08T10:19:55;30.20;66.10
55083;DHT22;40978;52.850;6.506;2023-07-08T10:33:38;30.80;64.60
55083;DHT22;40978;52.850;6.506;2023-07-08T10:38:43;31.00;60.70
55083;DHT22;40978;52.850;6.506;2023-07-08T10:41:24;31.00;59.80
55083;DHT22;40978;52.850;6.506;2023-07-08T10:44:04;31.10;58.30
55083;DHT22;40978;52.850;6.506;2023-07-08T10:52:45;31.20;57.90
55083;DHT22;40978;52.850;6.506;2023-07-08T10:55:31;31.30;57.00
55083;DHT22;40978;52.850;6.506;2023-07-08T11:01:05;31.50;57.80
55083;DHT22;40978;52.850;6.506;2023-07-08T11:06:46;31.90;53.90
55083;DHT22;40978;52.850;6.506;2023-07-08T11:09:22;31.90;54.80
55083;DHT22;40978;52.850;6.506;2023-07-08T11:11:56;31.90;53.50
55083;DHT22;40978;52.850;6.506;2023-07-08T11:14:27;31.80;54.10
55083;DHT22;40978;52.850;6.506;2023-07-08T11:17:07;31.90;53.90
55083;DHT22;40978;52.850;6.506;2023-07-08T11:19:41;31.90;53.50
55083;DHT22;40978;52.850;6.506;2023-07-08T11:22:12;32.00;54.40
55083;DHT22;40978;52.850;6.506;2023-07-08T11:24:49;32.10;52.80
55083;DHT22;40978;52.850;6.506;2023-07-08T11:27:31;32.20;52.00
55083;DHT22;40978;52.850;6.506;2023-07-08T11:32:28;32.10;53.10
55083;DHT22;40978;52.850;6.506;2023-07-08T11:34:55;32.20;52.00
55083;DHT22;40978;52.850;6.506;2023-07-08T11:37:21;32.20;51.90
55083;DHT22;40978;52.850;6.506;2023-07-08T11:40:09;32.30;52.50
55083;DHT22;40978;52.850;6.506;2023-07-08T11:42:44;32.40;52.70
55083;DHT22;40978;52.850;6.506;2023-07-08T11:47:46;32.80;51.10
55083;DHT22;40978;52.850;6.506;2023-07-08T11:50:36;32.90;50.50
55083;DHT22;40978;52.850;6.506;2023-07-08T11:53:13;33.00;49.10
55083;DHT22;40978;52.850;6.506;2023-07-08T11:58:25;32.90;48.70
55083;DHT22;40978;52.850;6.506;2023-07-08T12:01:05;33.00;50.70
55083;DHT22;40978;52.850;6.506;2023-07-08T12:09:26;33.50;47.30
55083;DHT22;40978;52.850;6.506;2023-07-08T12:12:05;33.60;47.90
55083;DHT22;40978;52.850;6.506;2023-07-08T12:14:31;33.60;48.80
55083;DHT22;40978;52.850;6.506;2023-07-08T12:16:58;33.60;48.00
55083;DHT22;40978;52.850;6.506;2023-07-08T12:19:27;33.80;49.30
55083;DHT22;40978;52.850;6.506;2023-07-08T12:21:54;33.90;49.70
55083;DHT22;40978;52.850;6.506;2023-07-08T12:24:20;34.20;51.00
55083;DHT22;40978;52.850;6.506;2023-07-08T12:26:52;34.40;50.60
55083;DHT22;40978;52.850;6.506;2023-07-08T12:29:18;34.50;47.40
55083;DHT22;40978;52.850;6.506;2023-07-08T12:31:44;34.40;47.50
55083;DHT22;40978;52.850;6.506;2023-07-08T12:34:16;34.40;48.30
55083;DHT22;40978;52.850;6.506;2023-07-08T12:36:44;34.40;46.70
55083;DHT22;40978;52.850;6.506;2023-07-08T12:39:15;34.30;47.00
55083;DHT22;40978;52.850;6.506;2023-07-08T12:41:42;34.30;47.20
55083;DHT22;40978;52.850;6.506;2023-07-08T12:44:18;34.40;48.10
55083;DHT22;40978;52.850;6.506;2023-07-08T12:46:45;34.50;47.70
55083;DHT22;40978;52.850;6.506;2023-07-08T12:49:13;34.40;44.50
55083;DHT22;40978;52.850;6.506;2023-07-08T12:51:42;34.30;46.20
55083;DHT22;40978;52.850;6.506;2023-07-08T12:54:10;34.30;46.90
55083;DHT22;40978;52.850;6.506;2023-07-08T12:56:36;34.30;45.00
55083;DHT22;40978;52.850;6.506;2023-07-08T12:59:04;34.40;46.20
55083;DHT22;40978;52.850;6.506;2023-07-08T13:01:33;34.40;44.80
55083;DHT22;40978;52.850;6.506;2023-07-08T13:04:03;34.10;43.70
55083;DHT22;40978;52.850;6.506;2023-07-08T13:06:31;34.20;46.80
55083;DHT22;40978;52.850;6.506;2023-07-08T13:09:11;34.30;46.50
55083;DHT22;40978;52.850;6.506;2023-07-08T13:11:45;34.50;46.40
55083;DHT22;40978;52.850;6.506;2023-07-08T13:14:12;34.60;47.10
55083;DHT22;40978;52.850;6.506;2023-07-08T13:16:40;34.60;46.40
55083;DHT22;40978;52.850;6.506;2023-07-08T13:19:06;34.60;45.00
55083;DHT22;40978;52.850;6.506;2023-07-08T13:21:34;34.40;45.70
55083;DHT22;40978;52.850;6.506;2023-07-08T13:24:00;34.30;46.20
55083;DHT22;40978;52.850;6.506;2023-07-08T13:26:29;34.20;45.10
55083;DHT22;40978;52.850;6.506;2023-07-08T13:29:06;34.20;45.80
55083;DHT22;40978;52.850;6.506;2023-07-08T13:31:34;34.20;46.80
55083;DHT22;40978;52.850;6.506;2023-07-08T13:34:07;34.30;46.80
55083;DHT22;40978;52.850;6.506;2023-07-08T13:36:37;34.30;44.80
55083;DHT22;40978;52.850;6.506;2023-07-08T13:39:09;34.20;46.20
55083;DHT22;40978;52.850;6.506;2023-07-08T13:41:35;34.00;44.60
55083;DHT22;40978;52.850;6.506;2023-07-08T13:44:06;33.90;44.90
55083;DHT22;40978;52.850;6.506;2023-07-08T13:49:14;34.10;44.60
55083;DHT22;40978;52.850;6.506;2023-07-08T13:51:40;34.10;44.10
55083;DHT22;40978;52.850;6.506;2023-07-08T13:54:18;34.10;45.80
55083;DHT22;40978;52.850;6.506;2023-07-08T13:56:44;34.10;44.40
55083;DHT22;40978;52.850;6.506;2023-07-08T13:59:21;34.00;45.20
55083;DHT22;40978;52.850;6.506;2023-07-08T14:01:48;34.00;45.70
55083;DHT22;40978;52.850;6.506;2023-07-08T14:04:19;34.10;46.90
55083;DHT22;40978;52.850;6.506;2023-07-08T14:06:46;34.20;46.80
55083;DHT22;40978;52.850;6.506;2023-07-08T14:09:18;34.20;45.30
55083;DHT22;40978;52.850;6.506;2023-07-08T14:11:45;34.10;45.80
55083;DHT22;40978;52.850;6.506;2023-07-08T14:14:12;34.10;45.80
55083;DHT22;40978;52.850;6.506;2023-07-08T14:16:43;34.10;46.70
55083;DHT22;40978;52.850;6.506;2023-07-08T14:19:16;34.20;46.90
55083;DHT22;40978;52.850;6.506;2023-07-08T14:21:43;34.10;45.90
55083;DHT22;40978;52.850;6.506;2023-07-08T14:24:11;34.10;45.90
55083;DHT22;40978;52.850;6.506;2023-07-08T14:26:47;34.00;46.10
55083;DHT22;40978;52.850;6.506;2023-07-08T14:29:13;34.00;46.30
55083;DHT22;40978;52.850;6.506;2023-07-08T14:31:40;34.00;46.50
55083;DHT22;40978;52.850;6.506;2023-07-08T14:34:22;34.10;45.70
55083;DHT22;40978;52.850;6.506;2023-07-08T14:36:48;34.00;46.20
55083;DHT22;40978;52.850;6.506;2023-07-08T14:39:16;33.90;45.70
55083;DHT22;40978;52.850;6.506;2023-07-08T14:41:44;33.70;45.10
55083;DHT22;40978;52.850;6.506;2023-07-08T14:46:48;33.50;46.20
55083;DHT22;40978;52.850;6.506;2023-07-08T14:49:17;33.50;46.50
55083;DHT22;40978;52.850;6.506;2023-07-08T14:51:43;33.40;45.10
55083;DHT22;40978;52.850;6.506;2023-07-08T14:54:09;33.30;44.50
55083;DHT22;40978;52.850;6.506;2023-07-08T14:56:35;33.20;44.70
55083;DHT22;40978;52.850;6.506;2023-07-08T14:59:01;33.10;44.90
55083;DHT22;40978;52.850;6.506;2023-07-08T15:01:28;33.10;44.90
55083;DHT22;40978;52.850;6.506;2023-07-08T15:03:56;33.00;45.30
55083;DHT22;40978;52.850;6.506;2023-07-08T15:06:23;33.00;44.50
55083;DHT22;40978;52.850;6.506;2023-07-08T15:08:48;33.00;45.20
55083;DHT22;40978;52.850;6.506;2023-07-08T15:11:14;33.00;44.60
55083;DHT22;40978;52.850;6.506;2023-07-08T15:13:42;32.90;45.50
55083;DHT22;40978;52.850;6.506;2023-07-08T15:16:15;33.00;45.10
55083;DHT22;40978;52.850;6.506;2023-07-08T15:18:41;33.00;46.30
55083;DHT22;40978;52.850;6.506;2023-07-08T15:21:11;33.00;45.40
55083;DHT22;40978;52.850;6.506;2023-07-08T15:23:37;33.00;43.20
55083;DHT22;40978;52.850;6.506;2023-07-08T15:26:03;32.90;45.30
55083;DHT22;40978;52.850;6.506;2023-07-08T15:28:46;32.90;45.80
55083;DHT22;40978;52.850;6.506;2023-07-08T15:31:20;32.90;44.20
55083;DHT22;40978;52.850;6.506;2023-07-08T15:33:49;32.90;45.20
55083;DHT22;40978;52.850;6.506;2023-07-08T15:36:15;32.80;45.20
55083;DHT22;40978;52.850;6.506;2023-07-08T15:38:41;32.90;45.00
55083;DHT22;40978;52.850;6.506;2023-07-08T15:41:18;32.90;44.50
55083;DHT22;40978;52.850;6.506;2023-07-08T15:43:45;32.90;45.30
55083;DHT22;40978;52.850;6.506;2023-07-08T15:46:11;32.90;45.80
55083;DHT22;40978;52.850;6.506;2023-07-08T15:48:37;33.00;45.50
55083;DHT22;40978;52.850;6.506;2023-07-08T15:51:03;32.90;45.20
55083;DHT22;40978;52.850;6.506;2023-07-08T15:53:28;32.90;45.00
55083;DHT22;40978;52.850;6.506;2023-07-08T15:55:54;32.80;44.50
55083;DHT22;40978;52.850;6.506;2023-07-08T15:58:32;32.80;44.30
55083;DHT22;40978;52.850;6.506;2023-07-08T16:00:59;32.70;43.60
55083;DHT22;40978;52.850;6.506;2023-07-08T16:03:29;32.60;44.40
55083;DHT22;40978;52.850;6.506;2023-07-08T16:05:57;32.60;44.10
55083;DHT22;40978;52.850;6.506;2023-07-08T16:08:23;32.60;43.00
55083;DHT22;40978;52.850;6.506;2023-07-08T16:10:58;32.50;44.20
55083;DHT22;40978;52.850;6.506;2023-07-08T16:13:31;32.50;44.40
55083;DHT22;40978;52.850;6.506;2023-07-08T16:15:58;32.50;44.20
55083;DHT22;40978;52.850;6.506;2023-07-08T16:18:24;32.50;44.60
55083;DHT22;40978;52.850;6.506;2023-07-08T16:20:51;32.50;44.90
55083;DHT22;40978;52.850;6.506;2023-07-08T16:23:17;32.50;45.00
55083;DHT22;40978;52.850;6.506;2023-07-08T16:25:46;32.50;44.40
55083;DHT22;40978;52.850;6.506;2023-07-08T16:31:13;32.40;44.70
55083;DHT22;40978;52.850;6.506;2023-07-08T16:33:41;32.30;45.00
55083;DHT22;40978;52.850;6.506;2023-07-08T16:36:12;32.30;45.50
55083;DHT22;40978;52.850;6.506;2023-07-08T16:38:39;32.30;46.00
55083;DHT22;40978;52.850;6.506;2023-07-08T16:41:07;32.30;45.50
55083;DHT22;40978;52.850;6.506;2023-07-08T16:43:33;32.30;45.50
55083;DHT22;40978;52.850;6.506;2023-07-08T16:45:59;32.20;45.60
55083;DHT22;40978;52.850;6.506;2023-07-08T16:48:25;32.10;46.20
55083;DHT22;40978;52.850;6.506;2023-07-08T16:50:51;32.10;46.20
55083;DHT22;40978;52.850;6.506;2023-07-08T16:53:25;32.00;46.00
55083;DHT22;40978;52.850;6.506;2023-07-08T16:55:50;31.90;46.20
55083;DHT22;40978;52.850;6.506;2023-07-08T16:58:16;31.80;46.90